KSLE/SLE METAR and TAF weather

Enter ICAO airport designator
Station Type Date Time Source
KSLE METAR 2019/04/25 17:56 UTC NOAA

KSLE 251756Z 00000KT 10SM CLR 13/04 A3008 RMK AO2 SLP184 T01280044


Station Type Date Time Source
KSLE Decoded METAR 2019/04/25 17:56 UTC NOAA

SALEM MCNARY FIELD, OR, United States (KSLE) 44-54N 123-00W 59M
Apr 25, 2019 - 01:56 PM EDT / 2019.04.25 1756 UTC
Wind: Calm:0
Visibility: 10 mile(s):0
Sky conditions: clear
Temperature: 55.0 F (12.8 C)
Dew Point: 39.9 F (4.4 C)
Relative Humidity: 56%
Pressure (altimeter): 30.08 in. Hg (1018 hPa)
Pressure tendency: 0.03 inches (0.9 hPa) lower than three hours ago
ob: KSLE 251756Z 00000KT 10SM CLR 13/04 A3008 RMK AO2 SLP184 T01280044 10133 20061 56009
cycle: 18

Station Type Date Time Source
KSLE TAF 2019/04/25 12:36 UTC NOAA

TAF KSLE 251135Z 2512/2612 36004KT P6SM SKC
FM252200 35006KT P6SM SCT250
FM260500 VRB03KT P6SM SCT150

Example: see airport list